Close

Questo sito utlizza cookie. Può leggere come li usiamo nella nostra Privacy Policy.

Ronchi Tower
Ronchi Tower

News

Posted by Fabio Davanzo - 26 Mar 2017
Views: 45

Come ogni anno, con l'arrivo dell'ora legale scatta l'orario estivo che per il Trieste Airport coincide con il primo volo del nuovo collegamento Ryanair con Roma Ciampino previsto verso le ore 21. 

In Homepage sono tornati i voli in real time e nella sezione Airport c'è l'elenco dei collegamenti previsti fino al 27 ottobre.

...

From Facebook

Real Time Flights

(Updated: 26 Apr - 03:59)    
Fonte: Triesteairport.it

Arrivals

Compagnia Volo Provenienza Previsto Note
Alitalia 01351 Milano LIN 9:30
Alitalia 01357 Roma FCO 10:25
Lufthansa 01934 Munich 12:25
Ryanair 05678 Roma CIA 12:45
Lufthansa 01936 Munich 16:05
Alitalia 01365 Roma FCO 16:05
Alitalia 01359 Roma FCO 18:00
Volotea 01638 Napoli 18:25
Alitalia 01361 Roma FCO 20:25
Alitalia 01353 Milano LIN 21:40

Departures

Compagnia Volo Destinazione Effettivo Note
Lufthansa 01939 Munich 6:15
Alitalia 01350 Milano LIN 6:50
Alitalia 01356 Roma FCO 7:05
Alitalia 01354 Roma FCO 8:05
Alitalia 01358 Roma FCO 11:10
Lufthansa 01935 Munich 13:05 Cambio gate
Ryanair 05679 Roma CIA 13:10
Alitalia 01360 Roma FCO 14:40
Lufthansa 01937 Munich 16:40
Volotea 01639 Napoli 18:50 Cambio gate

METAR & TAF

2017/04/26 01:50 LIPQ 260150Z AUTO 17008KT 9999 FEW016/// SCT055/// BKN100/// 15/12 Q1011
2017/04/25 18:25 TAF LIPQ 251700Z 2518/2618 19010KT 9999 SCT020 TEMPO 2518/2521 RA TEMPO 2608/2614 RA TEMPO 2514/2518 SHRA
2017/04/26 01:50 LIPZ 260150Z VRB01KT CAVOK 12/11 Q1010 NOSIG
2017/04/25 18:21 TAF LIPZ 251700Z 2518/2624 16008KT 6000 SCT025 BKN040 TEMPO 2608/2615 RA TEMPO 2615/2622 SHRA
2017/04/26 01:50 LIPH 260150Z AUTO 04004KT 290V060 9000 OVC100/// 13/12 Q1010
2017/04/26 00:30 TAF AMD LIPH 260022Z 2600/2624 VRB06KT 6000 SCT025 BKN040 TEMPO 2600/2606 4000 BR BECMG 2607/2610 14010KT RA
2017/04/26 01:50 LIRF 260150Z 12004KT 090V150 CAVOK 11/06 Q1013 NOSIG
2017/04/25 18:21 TAF LIRF 251700Z 2518/2624 15008KT 9999 SCT030 BECMG 2605/2607 17018KT TEMPO 2609/2615 17020G30KT TEMPO 2621/2624 RA
2017/04/26 01:50 LIML 260150Z 09008KT 010V110 9999 SCT080 15/08 Q1007 NOSIG
2017/04/25 18:25 TAF LIML 251700Z 2518/2618 10008KT 8000 SCT030 BKN060 BECMG 2601/2603 RA TEMPO 2612/2618 4000 TSRA
2017/04/26 01:50 EDDM 260150Z 35005KT 300V020 9999 -RADZ FEW004 BKN006 OVC023 04/03 Q1007 RERA TEMPO 4000 RADZ
2017/04/25 18:27 TAF EDDM 251700Z 2518/2624 34005KT 7000 SCT012 BKN030 BECMG 2518/2520 RA BKN010 TEMPO 2520/2605 4000 RADZ BKN004 TEMPO 2605/2608 2000 RASN BKN004 BECMG 2608/2610 NSW BKN015 TEMPO 2610/2620 RA BECMG 2620/2622 BKN012
2017/04/26 01:50 EGSS 260150Z AUTO 32006KT 9999 BKN010 OVC021 01/00 Q1015
2017/04/26 01:00 TAF AMD EGSS 260158Z 2601/2706 34012KT 9999 FEW030 PROB30 TEMPO 2601/2609 BKN009 TEMPO 2609/2620 7000 SHRA PROB30 TEMPO 2612/2619 36015G28KT 4000 +SHRA SHGS BECMG 2621/2624 28006KT

FlightRadar24

Radar Meteo

Traffic data

Febbraio 2017

Passeggeri: 47549-2,0% (rank: 23)
Nazionali 31162 -0,9% 22°
Internazionali 16250 -3,6% 21°

Movimenti: 1143+7,2% (rank: 19)
Tot commerciale 628 -1,3% 21°
Aviazione generale 515 +19,8%

Cargo (tons): 24,2-27,6% (rank: 19)

Gennaio - Febbraio 2017

Passeggeri: 98509+6,3% (rank: 23)
Nazionali 65108 +9,4% 22°
Internazionali 33161 +1,2% 20°

Movimenti: 2418+12,2% (rank: 19)
Tot commerciale 1296 +6,2% 21°
Aviazione generale 1122 +19,9%

Cargo (tons): 61,2-18,0% (rank: 19)

Photo

Polo Intermodale
Polo Intermodale
Distinct views: 13
Polo Intermodale
Polo Intermodale
Distinct views: 45
Polo Intermodale
Polo Intermodale
Distinct views: 98
Sukhoi SSJ-100-95B Superjet 100
Sukhoi SSJ-100-95B Superjet 100
Total views: 248